createdAt,value
2018-08-16T00:01:33.110Z,11.90
2018-08-16T00:04:02.970Z,12.93
2018-08-16T00:06:33.566Z,12.10
2018-08-16T00:09:03.353Z,12.43
2018-08-16T00:11:33.159Z,12.73
2018-08-16T00:14:02.921Z,12.83
2018-08-16T00:16:32.733Z,11.37
2018-08-16T00:19:02.928Z,12.33
2018-08-16T00:21:32.658Z,10.97
2018-08-16T00:24:02.423Z,11.77
2018-08-16T00:26:32.473Z,12.87
2018-08-16T00:29:02.169Z,12.80
2018-08-16T00:31:31.667Z,12.70
2018-08-16T00:34:01.800Z,12.40
2018-08-16T00:36:31.598Z,12.23
2018-08-16T00:39:01.320Z,12.60
2018-08-16T00:41:31.150Z,12.70
2018-08-16T00:44:00.839Z,11.97
2018-08-16T00:46:30.649Z,11.97
2018-08-16T00:49:00.893Z,11.73
2018-08-16T00:51:30.931Z,11.47
2018-08-16T00:54:00.437Z,12.63
2018-08-16T00:56:30.248Z,15.50
2018-08-16T00:59:00.122Z,16.30
2018-08-16T01:01:30.062Z,14.33
2018-08-16T01:03:59.784Z,13.60
2018-08-16T01:06:29.974Z,13.93
2018-08-16T01:08:59.870Z,14.87
2018-08-16T01:11:29.628Z,15.43
2018-08-16T01:13:59.193Z,14.43
2018-08-16T01:16:28.925Z,13.43
2018-08-16T01:18:59.017Z,15.13
2018-08-16T01:21:28.737Z,16.53
2018-08-16T01:23:58.645Z,14.90
2018-08-16T01:26:28.549Z,16.63
2018-08-16T01:28:58.507Z,16.40
2018-08-16T01:31:28.922Z,17.00
2018-08-16T01:33:58.739Z,15.50
2018-08-16T01:36:28.714Z,18.23
2018-08-16T01:38:58.521Z,19.40
2018-08-16T01:41:28.557Z,17.30
2018-08-16T01:43:58.258Z,16.63
2018-08-16T01:46:28.181Z,18.03
2018-08-16T01:48:57.801Z,17.40
2018-08-16T01:51:27.537Z,16.97
2018-08-16T01:53:57.112Z,17.43
2018-08-16T01:56:27.157Z,16.57
2018-08-16T01:58:57.077Z,17.23
2018-08-16T02:01:26.597Z,16.60
2018-08-16T02:03:56.748Z,18.20
2018-08-16T02:06:26.330Z,17.83
2018-08-16T02:08:56.319Z,17.37
2018-08-16T02:11:26.089Z,18.00
2018-08-16T02:13:55.750Z,20.57
2018-08-16T02:16:25.430Z,18.57
2018-08-16T02:18:55.999Z,20.37
2018-08-16T02:21:26.273Z,19.57
2018-08-16T02:23:55.989Z,19.70
2018-08-16T02:26:26.323Z,19.87
2018-08-16T02:28:56.531Z,19.97
2018-08-16T02:31:26.141Z,20.67
2018-08-16T02:33:56.394Z,19.73
2018-08-16T02:36:26.730Z,21.93
2018-08-16T02:38:56.570Z,20.33
2018-08-16T02:41:26.119Z,20.07
2018-08-16T02:43:55.844Z,21.73
2018-08-16T02:46:26.021Z,20.20
2018-08-16T02:48:56.130Z,20.90
2018-08-16T02:51:26.429Z,22.40
2018-08-16T02:53:55.982Z,22.27
2018-08-16T02:56:25.777Z,23.80
2018-08-16T02:58:55.803Z,23.40
2018-08-16T03:01:25.889Z,23.47
2018-08-16T03:03:55.662Z,23.63
2018-08-16T03:06:25.417Z,22.07
2018-08-16T03:08:54.937Z,24.73
2018-08-16T03:11:24.810Z,24.70
2018-08-16T03:13:54.827Z,24.37
2018-08-16T03:16:24.491Z,24.07
2018-08-16T03:18:54.493Z,24.50
2018-08-16T03:21:24.059Z,24.47
2018-08-16T03:23:54.114Z,24.70
2018-08-16T03:26:23.640Z,23.40
2018-08-16T03:28:53.241Z,23.00
2018-08-16T03:31:23.175Z,22.80
2018-08-16T03:33:52.674Z,23.03
2018-08-16T03:36:22.309Z,26.30
2018-08-16T03:38:52.263Z,25.30
2018-08-16T03:41:22.253Z,26.97
2018-08-16T03:43:51.827Z,27.17
2018-08-16T03:46:21.349Z,27.37
2018-08-16T03:48:51.253Z,29.30
2018-08-16T03:51:20.787Z,30.60
2018-08-16T03:53:50.471Z,29.87
2018-08-16T03:56:20.493Z,33.23
2018-08-16T03:58:50.270Z,32.67
2018-08-16T04:01:19.807Z,29.57
2018-08-16T04:03:52.494Z,27.97
2018-08-16T04:06:22.005Z,28.63
2018-08-16T04:08:51.877Z,29.90
2018-08-16T04:11:21.762Z,30.20
2018-08-16T04:13:51.322Z,31.23
2018-08-16T04:16:21.121Z,30.43
2018-08-16T04:18:50.999Z,28.70
2018-08-16T04:21:20.530Z,30.10
2018-08-16T04:23:50.751Z,30.13
2018-08-16T04:26:20.430Z,29.93
2018-08-16T04:28:50.906Z,31.27
2018-08-16T04:31:21.159Z,29.73
2018-08-16T04:33:51.374Z,31.67
2018-08-16T04:36:21.006Z,36.43
2018-08-16T04:38:51.205Z,90.60
2018-08-16T04:41:20.709Z,41.97
2018-08-16T04:43:50.346Z,32.43
2018-08-16T04:46:20.854Z,31.40
2018-08-16T04:48:51.531Z,31.67
2018-08-16T04:51:22.230Z,29.03
2018-08-16T04:53:52.773Z,30.00
2018-08-16T04:56:24.961Z,32.20
2018-08-16T04:58:54.620Z,27.87
2018-08-16T05:01:24.185Z,31.77
2018-08-16T05:03:53.718Z,28.10
2018-08-16T05:06:23.602Z,27.93
2018-08-16T05:08:53.209Z,25.57
2018-08-16T05:11:22.706Z,25.77
2018-08-16T05:13:52.749Z,26.53
2018-08-16T05:16:22.263Z,25.43
2018-08-16T05:18:52.021Z,23.90
2018-08-16T05:21:21.799Z,26.00
2018-08-16T05:23:56.607Z,22.87
2018-08-16T05:26:26.285Z,23.83
2018-08-16T05:28:55.998Z,24.60
2018-08-16T05:31:26.491Z,102.07
2018-08-16T05:33:56.030Z,23.73
2018-08-16T05:36:25.648Z,21.50
2018-08-16T05:38:56.134Z,20.97
2018-08-16T05:41:27.974Z,20.03
2018-08-16T05:43:58.377Z,21.70
2018-08-16T05:46:28.413Z,20.80
2018-08-16T05:48:58.425Z,21.97
2018-08-16T05:51:29.185Z,22.17
2018-08-16T05:53:59.224Z,19.53
2018-08-16T05:56:28.931Z,19.67
2018-08-16T05:58:58.458Z,19.93
2018-08-16T06:01:28.097Z,18.60
2018-08-16T06:03:57.797Z,19.47
2018-08-16T06:06:27.375Z,22.70
2018-08-16T06:08:57.510Z,20.00
2018-08-16T06:11:27.170Z,20.07
2018-08-16T06:14:03.229Z,17.83
2018-08-16T06:16:32.733Z,18.73
2018-08-16T06:19:02.914Z,20.53
2018-08-16T06:21:39.175Z,19.40
2018-08-16T06:24:09.632Z,18.13
2018-08-16T06:26:40.170Z,19.47
2018-08-16T06:29:10.742Z,19.87
2018-08-16T06:31:40.313Z,20.00
2018-08-16T06:34:09.927Z,19.87
2018-08-16T06:36:40.038Z,18.33
2018-08-16T06:39:24.974Z,18.63
2018-08-16T06:41:54.509Z,19.57
2018-08-16T06:44:24.366Z,18.13
2018-08-16T06:46:54.105Z,19.80
2018-08-16T06:49:24.667Z,19.67
2018-08-16T06:51:54.525Z,17.27
2018-08-16T06:54:25.369Z,18.47
2018-08-16T06:56:54.986Z,18.53
2018-08-16T06:59:24.923Z,19.17
2018-08-16T07:01:54.499Z,20.10
2018-08-16T07:04:24.053Z,18.37
2018-08-16T07:06:53.608Z,19.23
2018-08-16T07:09:23.134Z,19.73
2018-08-16T07:11:52.707Z,22.13
2018-08-16T07:14:22.590Z,18.20
2018-08-16T07:16:52.142Z,18.70
2018-08-16T07:19:21.686Z,18.57
2018-08-16T07:21:52.332Z,18.20
2018-08-16T07:24:21.900Z,18.77
2018-08-16T07:26:51.544Z,19.53
2018-08-16T07:29:21.398Z,21.23
2018-08-16T07:31:50.919Z,21.77
2018-08-16T07:34:20.410Z,20.00
2018-08-16T07:36:49.930Z,18.77
2018-08-16T07:39:19.661Z,25.67
2018-08-16T07:41:49.701Z,19.77
2018-08-16T07:44:19.941Z,19.70
2018-08-16T07:46:49.525Z,21.03
2018-08-16T07:49:19.378Z,20.77
2018-08-16T07:51:48.949Z,19.00
2018-08-16T07:54:18.530Z,17.27
2018-08-16T07:56:48.393Z,18.57
2018-08-16T07:59:17.970Z,18.70
2018-08-16T08:01:47.522Z,19.07
2018-08-16T08:04:17.089Z,19.10
2018-08-16T08:06:46.931Z,19.60
2018-08-16T08:09:16.617Z,17.80
2018-08-16T08:11:46.158Z,17.70
2018-08-16T08:14:15.965Z,18.60
2018-08-16T08:16:45.542Z,18.80
2018-08-16T08:19:16.380Z,20.23
2018-08-16T08:21:46.246Z,17.30
2018-08-16T08:24:15.806Z,19.73
2018-08-16T08:26:45.406Z,20.37
2018-08-16T08:29:27.015Z,20.07
2018-08-16T08:31:56.515Z,19.37
2018-08-16T08:34:26.063Z,21.30
2018-08-16T08:37:06.765Z,22.40
2018-08-16T08:39:36.358Z,25.70
2018-08-16T08:42:05.985Z,21.63
2018-08-16T08:44:35.573Z,20.73
2018-08-16T08:47:05.222Z,18.93
2018-08-16T08:49:35.129Z,21.70
2018-08-16T08:52:04.792Z,20.90
2018-08-16T08:55:00.036Z,24.00
2018-08-16T08:57:40.262Z,23.90
2018-08-16T09:00:09.838Z,22.57
2018-08-16T09:02:39.789Z,22.63
2018-08-16T09:05:09.434Z,21.27
2018-08-16T09:07:39.004Z,23.27
2018-08-16T09:11:17.884Z,19.13
2018-08-16T09:14:00.903Z,20.33
2018-08-16T09:16:33.093Z,16.87
2018-08-16T09:19:03.019Z,18.77
2018-08-16T09:21:33.711Z,16.03
2018-08-16T09:24:03.446Z,19.30
2018-08-16T09:26:38.282Z,15.83
2018-08-16T09:29:24.514Z,15.97
2018-08-16T09:32:11.637Z,19.13
2018-08-16T09:34:41.222Z,16.60
2018-08-16T09:37:14.550Z,22.33
2018-08-16T09:39:46.374Z,15.77
2018-08-16T09:42:15.968Z,16.77
2018-08-16T09:44:45.926Z,16.23
2018-08-16T09:49:31.625Z,19.10
2018-08-16T09:52:01.715Z,15.57
2018-08-16T09:54:31.388Z,14.80
2018-08-16T09:57:02.345Z,12.50
2018-08-16T09:59:31.927Z,13.67
2018-08-16T10:02:01.907Z,11.67
2018-08-16T10:04:31.489Z,14.33
2018-08-16T10:07:01.181Z,14.27
2018-08-16T10:09:31.695Z,12.07
2018-08-16T10:12:04.538Z,10.40
2018-08-16T10:14:36.674Z,12.90
2018-08-16T10:17:06.209Z,10.10
2018-08-16T10:19:37.101Z,8.83
2018-08-16T10:22:06.862Z,8.63
2018-08-16T10:24:36.472Z,11.37
2018-08-16T10:27:06.094Z,12.23
2018-08-16T10:29:35.646Z,9.97
2018-08-16T10:32:05.261Z,7.33
2018-08-16T10:34:34.854Z,12.20
2018-08-16T10:37:07.314Z,9.13
2018-08-16T10:39:46.707Z,8.70
2018-08-16T10:42:16.722Z,9.10
2018-08-16T10:44:46.546Z,9.03
2018-08-16T10:47:16.685Z,7.97
2018-08-16T10:49:46.199Z,10.17
2018-08-16T10:52:16.014Z,8.93
2018-08-16T10:54:45.874Z,10.13
2018-08-16T10:57:15.672Z,10.10
2018-08-16T10:59:45.378Z,9.80
2018-08-16T11:02:14.932Z,7.67
2018-08-16T11:04:44.979Z,7.97
2018-08-16T11:07:14.577Z,8.23
2018-08-16T11:09:44.234Z,7.63
2018-08-16T11:12:14.202Z,7.63
2018-08-16T11:14:55.253Z,9.47
2018-08-16T11:17:24.758Z,6.00
2018-08-16T11:19:54.314Z,8.87
2018-08-16T11:22:23.856Z,6.40
2018-08-16T11:25:02.927Z,7.03
2018-08-16T11:27:32.801Z,7.50
2018-08-16T11:30:02.609Z,6.93
2018-08-16T11:32:32.968Z,8.53
2018-08-16T11:35:03.147Z,6.53
2018-08-16T11:37:32.761Z,9.13
2018-08-16T11:40:05.814Z,8.27
2018-08-16T11:42:35.398Z,7.10
2018-08-16T11:45:05.410Z,7.50
2018-08-16T11:47:34.988Z,6.30
2018-08-16T11:50:05.210Z,7.27
2018-08-16T11:52:34.795Z,8.83
2018-08-16T11:55:04.539Z,8.40
2018-08-16T11:57:34.571Z,5.43
2018-08-16T12:00:04.269Z,6.30
2018-08-16T12:02:34.282Z,9.07
2018-08-16T12:05:04.362Z,11.87
2018-08-16T12:07:33.866Z,6.27
2018-08-16T12:10:03.416Z,7.20
2018-08-16T12:12:33.241Z,5.43
2018-08-16T12:15:02.805Z,4.30
2018-08-16T12:17:32.343Z,4.77
2018-08-16T12:20:02.138Z,6.13
2018-08-16T12:22:32.105Z,5.33
2018-08-16T12:25:02.247Z,4.93
2018-08-16T12:27:32.658Z,7.17
2018-08-16T12:30:04.121Z,6.23
2018-08-16T12:32:34.487Z,4.00
2018-08-16T12:35:04.455Z,8.90
2018-08-16T12:37:34.179Z,4.70
2018-08-16T12:40:04.984Z,7.37
2018-08-16T12:42:35.049Z,4.23
2018-08-16T12:45:05.592Z,5.33
2018-08-16T12:47:35.500Z,6.23
2018-08-16T12:50:10.554Z,4.47
2018-08-16T12:52:40.184Z,5.07
2018-08-16T12:55:11.596Z,4.53
2018-08-16T12:57:43.648Z,4.70
2018-08-16T13:00:17.771Z,7.63
2018-08-16T13:02:48.802Z,4.00
2018-08-16T13:05:18.542Z,6.67
2018-08-16T13:07:54.103Z,5.03
2018-08-16T13:10:26.189Z,4.80
2018-08-16T13:38:40.864Z,6.13
2018-08-16T13:55:33.630Z,4.77
2018-08-16T13:58:06.367Z,3.43
2018-08-16T14:00:36.890Z,5.17
2018-08-16T14:03:07.275Z,3.50
2018-08-16T14:05:38.775Z,3.33
2018-08-16T14:08:11.071Z,4.13
2018-08-16T14:10:42.610Z,3.73
2018-08-16T14:13:12.547Z,3.90
2018-08-16T14:15:44.089Z,3.77
2018-08-16T14:18:14.071Z,4.00
2018-08-16T14:20:44.931Z,4.63
2018-08-16T14:23:15.636Z,3.90
2018-08-16T14:25:47.334Z,8.00
2018-08-16T14:28:17.532Z,3.40
2018-08-16T14:30:50.150Z,4.87
2018-08-16T14:33:21.522Z,3.47
2018-08-16T14:35:53.223Z,3.83
2018-08-16T14:38:23.050Z,2.73
2018-08-16T14:40:54.518Z,5.40
2018-08-16T14:43:28.089Z,10.70
2018-08-16T14:45:58.610Z,5.13
2018-08-16T14:48:31.421Z,4.33
2018-08-16T14:51:02.170Z,6.07
2018-08-16T14:53:32.583Z,3.27
2018-08-16T14:56:03.223Z,3.20
2018-08-16T14:58:39.193Z,5.33
2018-08-16T15:01:18.107Z,5.73
2018-08-16T15:03:48.442Z,4.63
2018-08-16T15:06:18.548Z,4.00
2018-08-16T15:08:48.398Z,4.70
2018-08-16T15:11:18.242Z,3.83
2018-08-16T15:13:48.896Z,6.90
2018-08-16T15:16:24.835Z,3.80
2018-08-16T15:18:54.854Z,5.63
2018-08-16T15:21:27.217Z,7.30
2018-08-16T15:24:03.862Z,4.10
2018-08-16T15:26:33.807Z,5.87
2018-08-16T15:29:04.965Z,6.60
2018-08-16T15:31:34.926Z,5.53
2018-08-16T15:34:04.856Z,9.37
2018-08-16T15:36:34.765Z,7.73
2018-08-16T15:39:06.633Z,5.87
2018-08-16T15:42:10.906Z,5.83
2018-08-16T15:44:41.514Z,5.43
2018-08-16T15:47:11.894Z,7.53
2018-08-16T15:49:43.329Z,4.87
2018-08-16T15:52:13.617Z,5.20
2018-08-16T15:54:43.577Z,4.73
2018-08-16T15:57:13.781Z,5.23
2018-08-16T15:59:43.708Z,7.07
2018-08-16T16:02:13.595Z,8.13
2018-08-16T16:04:43.689Z,7.10
2018-08-16T16:07:14.228Z,9.03
2018-08-16T16:09:44.513Z,5.13
2018-08-16T16:12:15.217Z,5.83
2018-08-16T16:14:45.648Z,5.40
2018-08-16T16:17:15.760Z,6.90
2018-08-16T16:19:45.772Z,6.30
2018-08-16T16:22:15.725Z,8.90
2018-08-16T16:24:46.244Z,6.93
2018-08-16T16:27:16.677Z,5.17
2018-08-16T16:29:47.394Z,5.47
2018-08-16T16:32:17.298Z,5.13
2018-08-16T16:34:49.146Z,6.33
2018-08-16T16:37:19.558Z,5.73
2018-08-16T16:39:49.453Z,5.83
2018-08-16T16:42:19.371Z,4.30
2018-08-16T16:44:49.383Z,5.20
2018-08-16T16:47:19.300Z,5.07
2018-08-16T16:49:51.095Z,8.10
2018-08-16T16:52:21.085Z,6.43
2018-08-16T16:54:51.397Z,8.17
2018-08-16T16:57:21.840Z,10.03
2018-08-16T16:59:51.954Z,7.73
2018-08-16T17:02:21.965Z,6.53
2018-08-16T17:04:51.884Z,9.47
2018-08-16T17:07:23.572Z,7.27
2018-08-16T17:09:54.475Z,10.00
2018-08-16T17:12:25.077Z,9.70
2018-08-16T17:14:55.656Z,7.87
2018-08-16T17:17:25.572Z,8.13
2018-08-16T17:19:55.689Z,8.83
2018-08-16T17:22:25.638Z,8.33
2018-08-16T17:24:56.720Z,8.50
2018-08-16T17:27:26.904Z,8.63
2018-08-16T17:29:56.822Z,8.00
2018-08-16T17:32:27.167Z,8.23
2018-08-16T17:34:57.065Z,7.83
2018-08-16T17:37:28.033Z,8.23
2018-08-16T17:39:58.775Z,10.17
2018-08-16T17:42:28.900Z,8.43
2018-08-16T17:44:58.813Z,7.70
2018-08-16T17:47:28.973Z,10.03
2018-08-16T17:49:59.154Z,10.23
2018-08-16T17:52:29.128Z,9.63
2018-08-16T17:55:00.382Z,8.37
2018-08-16T17:57:34.081Z,8.83
2018-08-16T18:00:04.494Z,12.87
2018-08-16T18:02:34.474Z,9.93
2018-08-16T18:05:05.516Z,11.33
2018-08-16T18:07:35.581Z,10.67
2018-08-16T18:10:06.773Z,11.10
2018-08-16T18:12:37.740Z,10.73
2018-08-16T18:15:10.148Z,10.20
2018-08-16T18:17:40.256Z,9.27
2018-08-16T18:20:11.885Z,11.00
2018-08-16T18:22:41.813Z,11.07
2018-08-16T18:25:12.433Z,10.17
2018-08-16T18:27:43.150Z,13.40
2018-08-16T18:30:13.654Z,10.77
2018-08-16T18:32:44.596Z,13.03
2018-08-16T18:35:15.771Z,11.80
2018-08-16T18:37:45.997Z,12.83
2018-08-16T18:40:16.324Z,12.20
2018-08-16T18:42:46.642Z,14.43
2018-08-16T18:45:17.735Z,13.37
2018-08-16T18:47:48.125Z,14.30
2018-08-16T18:50:18.061Z,14.03
2018-08-16T18:52:48.790Z,19.10
2018-08-16T18:55:20.949Z,13.83
2018-08-16T18:57:51.233Z,19.30
2018-08-16T19:00:21.628Z,15.10
2018-08-16T19:02:51.953Z,15.60
2018-08-16T19:05:21.851Z,17.47
2018-08-16T19:07:53.077Z,18.13
2018-08-16T19:10:23.694Z,19.67
2018-08-16T19:12:53.836Z,17.23
2018-08-16T19:15:23.757Z,17.27
2018-08-16T19:17:53.801Z,15.27
2018-08-16T19:20:24.091Z,18.90
2018-08-16T19:22:54.016Z,15.93
2018-08-16T19:25:24.957Z,19.77
2018-08-16T19:27:55.221Z,16.80
2018-08-16T19:30:25.288Z,17.77
2018-08-16T19:32:55.265Z,18.07
2018-08-16T19:35:25.584Z,14.80
2018-08-16T19:37:55.513Z,16.33
2018-08-16T19:40:25.862Z,14.53
2018-08-16T19:42:55.793Z,15.10
2018-08-16T19:45:26.291Z,14.93
2018-08-16T19:47:56.628Z,15.97
2018-08-16T19:50:27.505Z,15.43
2018-08-16T19:52:58.495Z,15.50
2018-08-16T19:55:29.760Z,14.90
2018-08-16T19:58:00.553Z,15.60
2018-08-16T20:00:33.666Z,15.83
2018-08-16T20:03:04.172Z,16.23
2018-08-16T20:05:35.666Z,15.10
2018-08-16T20:08:07.757Z,15.63
2018-08-16T20:10:38.040Z,12.80
2018-08-16T20:13:09.311Z,12.63
2018-08-16T20:15:40.446Z,13.93
2018-08-16T20:18:10.834Z,14.97
2018-08-16T20:20:42.855Z,13.97
2018-08-16T20:23:13.857Z,16.00
2018-08-16T20:25:43.983Z,13.47
2018-08-16T20:28:14.893Z,15.77
2018-08-16T20:30:45.530Z,13.87
2018-08-16T20:33:16.180Z,15.90
2018-08-16T20:35:46.650Z,13.33
2018-08-16T20:38:17.656Z,13.07
2018-08-16T20:40:48.953Z,13.10
2018-08-16T20:43:19.260Z,13.57
2018-08-16T20:45:49.615Z,16.23
2018-08-16T20:48:20.943Z,13.70
2018-08-16T20:50:52.768Z,13.73
2018-08-16T20:53:25.458Z,18.63
2018-08-16T20:55:55.998Z,13.27
2018-08-16T20:58:26.745Z,14.67
2018-08-16T21:00:58.323Z,16.37
2018-08-16T21:03:29.041Z,15.93
2018-08-16T21:06:01.399Z,13.53
2018-08-16T21:08:32.758Z,12.47
2018-08-16T21:11:03.366Z,12.33
2018-08-16T21:13:34.416Z,11.83
2018-08-16T21:16:04.548Z,11.77
2018-08-16T21:18:34.741Z,11.70
2018-08-16T21:21:05.177Z,15.87
2018-08-16T21:23:36.387Z,11.70
2018-08-16T21:26:06.852Z,13.00
2018-08-16T21:28:37.176Z,11.93
2018-08-16T21:31:07.989Z,13.37
2018-08-16T21:33:38.796Z,12.17
2018-08-16T21:36:08.957Z,11.63
2018-08-16T21:38:43.284Z,12.77
2018-08-16T21:41:21.723Z,11.57
2018-08-16T21:43:53.193Z,13.37
2018-08-16T21:46:24.745Z,11.77
2018-08-16T21:48:55.294Z,12.63
2018-08-16T21:51:25.208Z,13.70
2018-08-16T21:53:56.804Z,12.37
2018-08-16T21:56:28.222Z,12.60
2018-08-16T21:58:58.648Z,14.10
2018-08-16T22:01:29.047Z,12.90
2018-08-16T22:03:59.368Z,13.93
2018-08-16T22:06:41.024Z,14.57
2018-08-16T22:09:13.319Z,14.47
2018-08-16T22:11:43.219Z,15.50
2018-08-16T22:14:13.661Z,14.53
2018-08-16T22:16:44.801Z,14.93
2018-08-16T22:19:14.720Z,15.60
2018-08-16T22:21:44.662Z,18.70
2018-08-16T22:24:14.921Z,15.53
2018-08-16T22:26:45.197Z,17.00
2018-08-16T22:29:15.066Z,15.83
2018-08-16T22:31:46.083Z,20.07
2018-08-16T22:34:15.973Z,19.93
2018-08-16T22:36:46.395Z,19.40
2018-08-16T22:39:17.984Z,18.00
2018-08-16T22:41:47.901Z,19.33
2018-08-16T22:44:18.388Z,20.70
2018-08-16T22:46:48.765Z,19.47
2018-08-16T22:49:18.700Z,19.50
2018-08-16T22:51:49.341Z,21.57
2018-08-16T22:54:20.149Z,21.43
2018-08-16T22:56:50.793Z,22.07
2018-08-16T22:59:20.716Z,25.20
2018-08-16T23:01:50.980Z,24.17
2018-08-16T23:04:20.880Z,22.70
2018-08-16T23:06:51.102Z,24.10
2018-08-16T23:09:22.665Z,23.03
2018-08-16T23:11:53.265Z,23.70
2018-08-16T23:14:23.179Z,22.93
2018-08-16T23:16:54.072Z,26.67
2018-08-16T23:19:24.365Z,24.90
2018-08-16T23:21:54.257Z,23.77
2018-08-16T23:24:24.894Z,28.13
2018-08-16T23:26:55.088Z,27.60
2018-08-16T23:29:25.837Z,26.40
2018-08-16T23:31:56.124Z,26.40
2018-08-16T23:34:26.184Z,27.13
2018-08-16T23:36:56.125Z,27.83
2018-08-16T23:39:26.765Z,28.73
2018-08-16T23:41:57.635Z,29.90
2018-08-16T23:44:27.525Z,32.30
2018-08-16T23:46:57.456Z,33.90
2018-08-16T23:49:28.536Z,40.17
2018-08-16T23:51:58.530Z,37.47
2018-08-16T23:54:28.552Z,34.97
2018-08-16T23:56:58.888Z,36.43
2018-08-16T23:59:28.866Z,38.50
